sensor_id;sensor_type;location;lat;lon;timestamp;P1;durP1;ratioP1;P2;durP2;ratioP2
75246;SDS011;63844;50.042;19.224;2023-04-25T00:00:41;8.70;;;5.70;;
75246;SDS011;63844;50.042;19.224;2023-04-25T00:03:19;9.20;;;5.50;;
75246;SDS011;63844;50.042;19.224;2023-04-25T00:05:47;7.30;;;4.90;;
75246;SDS011;63844;50.042;19.224;2023-04-25T00:08:14;9.70;;;5.90;;
75246;SDS011;63844;50.042;19.224;2023-04-25T00:10:40;12.30;;;6.10;;
75246;SDS011;63844;50.042;19.224;2023-04-25T00:13:06;11.00;;;7.00;;
75246;SDS011;63844;50.042;19.224;2023-04-25T00:15:34;8.90;;;5.60;;
75246;SDS011;63844;50.042;19.224;2023-04-25T00:18:02;11.10;;;6.80;;
75246;SDS011;63844;50.042;19.224;2023-04-25T00:20:29;12.10;;;7.20;;
75246;SDS011;63844;50.042;19.224;2023-04-25T00:22:56;9.80;;;6.00;;
75246;SDS011;63844;50.042;19.224;2023-04-25T00:25:22;10.50;;;6.70;;
75246;SDS011;63844;50.042;19.224;2023-04-25T00:27:49;11.40;;;6.50;;
75246;SDS011;63844;50.042;19.224;2023-04-25T00:30:16;13.10;;;7.40;;
75246;SDS011;63844;50.042;19.224;2023-04-25T00:32:42;12.50;;;7.00;;
75246;SDS011;63844;50.042;19.224;2023-04-25T00:35:09;8.30;;;6.90;;
75246;SDS011;63844;50.042;19.224;2023-04-25T00:37:36;13.10;;;7.30;;
75246;SDS011;63844;50.042;19.224;2023-04-25T00:40:04;7.60;;;4.60;;
75246;SDS011;63844;50.042;19.224;2023-04-25T00:42:32;12.30;;;7.60;;
75246;SDS011;63844;50.042;19.224;2023-04-25T00:44:59;14.30;;;7.20;;
75246;SDS011;63844;50.042;19.224;2023-04-25T00:47:25;12.50;;;7.50;;
75246;SDS011;63844;50.042;19.224;2023-04-25T00:49:52;12.70;;;8.20;;
75246;SDS011;63844;50.042;19.224;2023-04-25T00:52:19;8.60;;;5.10;;
75246;SDS011;63844;50.042;19.224;2023-04-25T00:54:46;12.30;;;7.50;;
75246;SDS011;63844;50.042;19.224;2023-04-25T00:57:13;15.30;;;8.80;;
75246;SDS011;63844;50.042;19.224;2023-04-25T00:59:39;10.80;;;6.10;;
75246;SDS011;63844;50.042;19.224;2023-04-25T01:02:11;12.20;;;6.80;;
75246;SDS011;63844;50.042;19.224;2023-04-25T01:04:38;15.00;;;8.50;;
75246;SDS011;63844;50.042;19.224;2023-04-25T01:07:05;16.90;;;8.80;;
75246;SDS011;63844;50.042;19.224;2023-04-25T01:09:32;15.50;;;9.60;;
75246;SDS011;63844;50.042;19.224;2023-04-25T01:11:59;18.30;;;9.30;;
75246;SDS011;63844;50.042;19.224;2023-04-25T01:14:27;19.40;;;10.20;;
75246;SDS011;63844;50.042;19.224;2023-04-25T01:16:53;21.60;;;10.50;;
75246;SDS011;63844;50.042;19.224;2023-04-25T01:19:20;17.00;;;9.70;;
75246;SDS011;63844;50.042;19.224;2023-04-25T01:21:47;20.90;;;10.60;;
75246;SDS011;63844;50.042;19.224;2023-04-25T01:24:14;19.80;;;10.00;;
75246;SDS011;63844;50.042;19.224;2023-04-25T01:26:41;14.90;;;8.20;;
75246;SDS011;63844;50.042;19.224;2023-04-25T01:29:11;20.50;;;10.10;;
75246;SDS011;63844;50.042;19.224;2023-04-25T01:31:37;19.80;;;9.90;;
75246;SDS011;63844;50.042;19.224;2023-04-25T01:34:04;20.50;;;9.40;;
75246;SDS011;63844;50.042;19.224;2023-04-25T01:36:31;17.70;;;9.00;;
75246;SDS011;63844;50.042;19.224;2023-04-25T01:38:57;12.20;;;6.30;;
75246;SDS011;63844;50.042;19.224;2023-04-25T01:41:24;18.40;;;10.30;;
75246;SDS011;63844;50.042;19.224;2023-04-25T01:43:51;16.30;;;9.60;;
75246;SDS011;63844;50.042;19.224;2023-04-25T01:48:44;18.20;;;9.90;;
75246;SDS011;63844;50.042;19.224;2023-04-25T01:51:10;18.10;;;9.60;;
75246;SDS011;63844;50.042;19.224;2023-04-25T01:53:38;18.50;;;9.80;;
75246;SDS011;63844;50.042;19.224;2023-04-25T01:56:05;17.00;;;10.20;;
75246;SDS011;63844;50.042;19.224;2023-04-25T01:58:31;16.80;;;9.60;;
75246;SDS011;63844;50.042;19.224;2023-04-25T02:00:58;14.40;;;8.00;;
75246;SDS011;63844;50.042;19.224;2023-04-25T02:03:24;14.20;;;9.20;;
75246;SDS011;63844;50.042;19.224;2023-04-25T02:05:51;12.90;;;8.40;;
75246;SDS011;63844;50.042;19.224;2023-04-25T02:08:17;14.70;;;8.10;;
75246;SDS011;63844;50.042;19.224;2023-04-25T02:10:44;14.80;;;8.00;;
75246;SDS011;63844;50.042;19.224;2023-04-25T02:13:10;9.70;;;5.20;;
75246;SDS011;63844;50.042;19.224;2023-04-25T02:15:37;13.10;;;7.60;;
75246;SDS011;63844;50.042;19.224;2023-04-25T02:18:03;11.10;;;6.20;;
75246;SDS011;63844;50.042;19.224;2023-04-25T02:20:32;8.90;;;6.20;;
75246;SDS011;63844;50.042;19.224;2023-04-25T02:22:59;9.90;;;5.40;;
75246;SDS011;63844;50.042;19.224;2023-04-25T02:25:25;10.80;;;5.70;;
75246;SDS011;63844;50.042;19.224;2023-04-25T02:27:52;9.40;;;5.50;;
75246;SDS011;63844;50.042;19.224;2023-04-25T02:30:18;6.50;;;5.10;;
75246;SDS011;63844;50.042;19.224;2023-04-25T02:32:45;6.90;;;2.70;;
75246;SDS011;63844;50.042;19.224;2023-04-25T02:35:12;4.90;;;3.30;;
75246;SDS011;63844;50.042;19.224;2023-04-25T02:37:38;5.00;;;3.40;;
75246;SDS011;63844;50.042;19.224;2023-04-25T02:40:05;6.20;;;3.60;;
75246;SDS011;63844;50.042;19.224;2023-04-25T02:42:33;6.30;;;3.40;;
75246;SDS011;63844;50.042;19.224;2023-04-25T02:44:59;5.10;;;3.80;;
75246;SDS011;63844;50.042;19.224;2023-04-25T02:47:26;8.30;;;3.80;;
75246;SDS011;63844;50.042;19.224;2023-04-25T02:49:52;4.10;;;2.50;;
75246;SDS011;63844;50.042;19.224;2023-04-25T02:52:19;6.50;;;3.70;;
75246;SDS011;63844;50.042;19.224;2023-04-25T02:54:45;9.20;;;5.20;;
75246;SDS011;63844;50.042;19.224;2023-04-25T02:57:12;6.70;;;4.40;;
75246;SDS011;63844;50.042;19.224;2023-04-25T02:59:38;8.70;;;5.50;;
75246;SDS011;63844;50.042;19.224;2023-04-25T03:02:05;9.10;;;6.50;;
75246;SDS011;63844;50.042;19.224;2023-04-25T03:04:31;10.30;;;6.40;;
75246;SDS011;63844;50.042;19.224;2023-04-25T03:06:59;10.50;;;6.40;;
75246;SDS011;63844;50.042;19.224;2023-04-25T03:09:26;7.90;;;4.20;;
75246;SDS011;63844;50.042;19.224;2023-04-25T03:11:52;8.90;;;5.90;;
75246;SDS011;63844;50.042;19.224;2023-04-25T03:14:19;8.50;;;4.30;;
75246;SDS011;63844;50.042;19.224;2023-04-25T03:16:45;8.90;;;5.10;;
75246;SDS011;63844;50.042;19.224;2023-04-25T03:19:12;8.10;;;5.60;;
75246;SDS011;63844;50.042;19.224;2023-04-25T03:21:38;5.80;;;3.50;;
75246;SDS011;63844;50.042;19.224;2023-04-25T03:24:05;8.40;;;5.80;;
75246;SDS011;63844;50.042;19.224;2023-04-25T03:26:31;9.00;;;6.10;;
75246;SDS011;63844;50.042;19.224;2023-04-25T03:28:58;7.10;;;5.60;;
75246;SDS011;63844;50.042;19.224;2023-04-25T03:31:24;5.70;;;3.70;;
75246;SDS011;63844;50.042;19.224;2023-04-25T03:33:51;11.30;;;6.50;;
75246;SDS011;63844;50.042;19.224;2023-04-25T03:36:17;11.20;;;5.90;;
75246;SDS011;63844;50.042;19.224;2023-04-25T03:38:43;11.60;;;5.70;;
75246;SDS011;63844;50.042;19.224;2023-04-25T03:41:10;8.40;;;5.50;;
75246;SDS011;63844;50.042;19.224;2023-04-25T03:43:36;7.70;;;5.50;;
75246;SDS011;63844;50.042;19.224;2023-04-25T03:46:03;7.70;;;5.00;;
75246;SDS011;63844;50.042;19.224;2023-04-25T03:48:29;7.80;;;4.20;;
75246;SDS011;63844;50.042;19.224;2023-04-25T03:50:56;16.80;;;8.10;;
75246;SDS011;63844;50.042;19.224;2023-04-25T03:53:22;12.70;;;6.60;;
75246;SDS011;63844;50.042;19.224;2023-04-25T03:55:48;9.00;;;4.60;;
75246;SDS011;63844;50.042;19.224;2023-04-25T03:58:15;8.80;;;4.50;;
75246;SDS011;63844;50.042;19.224;2023-04-25T04:00:41;7.30;;;4.20;;
75246;SDS011;63844;50.042;19.224;2023-04-25T04:03:08;7.70;;;2.70;;
75246;SDS011;63844;50.042;19.224;2023-04-25T04:05:34;6.80;;;4.40;;
75246;SDS011;63844;50.042;19.224;2023-04-25T04:08:01;6.80;;;3.70;;
75246;SDS011;63844;50.042;19.224;2023-04-25T04:10:27;6.50;;;3.90;;
75246;SDS011;63844;50.042;19.224;2023-04-25T04:12:54;5.10;;;3.80;;
75246;SDS011;63844;50.042;19.224;2023-04-25T04:15:20;6.30;;;3.80;;
75246;SDS011;63844;50.042;19.224;2023-04-25T04:17:48;6.60;;;3.30;;
75246;SDS011;63844;50.042;19.224;2023-04-25T04:20:14;7.60;;;4.50;;
75246;SDS011;63844;50.042;19.224;2023-04-25T04:22:41;6.40;;;4.30;;
75246;SDS011;63844;50.042;19.224;2023-04-25T04:25:07;5.90;;;3.90;;
75246;SDS011;63844;50.042;19.224;2023-04-25T04:30:00;8.80;;;4.00;;
75246;SDS011;63844;50.042;19.224;2023-04-25T04:32:27;6.00;;;3.70;;
75246;SDS011;63844;50.042;19.224;2023-04-25T04:34:56;5.20;;;3.60;;
75246;SDS011;63844;50.042;19.224;2023-04-25T04:39:50;6.30;;;3.90;;
75246;SDS011;63844;50.042;19.224;2023-04-25T04:42:16;8.30;;;3.50;;
75246;SDS011;63844;50.042;19.224;2023-04-25T04:47:10;7.90;;;3.70;;
75246;SDS011;63844;50.042;19.224;2023-04-25T04:49:38;7.30;;;4.10;;
75246;SDS011;63844;50.042;19.224;2023-04-25T04:52:05;7.90;;;4.80;;
75246;SDS011;63844;50.042;19.224;2023-04-25T04:54:31;6.40;;;3.80;;
75246;SDS011;63844;50.042;19.224;2023-04-25T04:56:58;5.80;;;4.20;;
75246;SDS011;63844;50.042;19.224;2023-04-25T04:59:24;6.30;;;4.20;;
75246;SDS011;63844;50.042;19.224;2023-04-25T05:01:52;6.40;;;4.20;;
75246;SDS011;63844;50.042;19.224;2023-04-25T05:04:18;6.50;;;3.90;;
75246;SDS011;63844;50.042;19.224;2023-04-25T05:06:44;6.50;;;3.90;;
75246;SDS011;63844;50.042;19.224;2023-04-25T05:09:11;5.70;;;3.60;;
75246;SDS011;63844;50.042;19.224;2023-04-25T05:11:37;7.60;;;3.90;;
75246;SDS011;63844;50.042;19.224;2023-04-25T05:14:04;6.60;;;3.10;;
75246;SDS011;63844;50.042;19.224;2023-04-25T05:16:30;5.90;;;3.10;;
75246;SDS011;63844;50.042;19.224;2023-04-25T05:18:56;3.60;;;2.20;;
75246;SDS011;63844;50.042;19.224;2023-04-25T05:21:23;6.10;;;3.50;;
75246;SDS011;63844;50.042;19.224;2023-04-25T05:23:49;4.30;;;3.00;;
75246;SDS011;63844;50.042;19.224;2023-04-25T05:26:16;5.20;;;3.40;;
75246;SDS011;63844;50.042;19.224;2023-04-25T05:28:42;4.10;;;2.90;;
75246;SDS011;63844;50.042;19.224;2023-04-25T05:31:09;7.30;;;3.80;;
75246;SDS011;63844;50.042;19.224;2023-04-25T05:33:36;4.30;;;2.70;;
75246;SDS011;63844;50.042;19.224;2023-04-25T05:36:02;8.40;;;3.80;;
75246;SDS011;63844;50.042;19.224;2023-04-25T05:38:29;5.90;;;3.10;;
75246;SDS011;63844;50.042;19.224;2023-04-25T05:40:55;9.70;;;4.10;;
75246;SDS011;63844;50.042;19.224;2023-04-25T05:43:22;6.40;;;3.70;;
75246;SDS011;63844;50.042;19.224;2023-04-25T05:45:48;5.80;;;3.40;;
75246;SDS011;63844;50.042;19.224;2023-04-25T05:48:15;4.90;;;2.40;;
75246;SDS011;63844;50.042;19.224;2023-04-25T05:50:41;6.30;;;3.70;;
75246;SDS011;63844;50.042;19.224;2023-04-25T05:53:08;6.10;;;3.30;;
75246;SDS011;63844;50.042;19.224;2023-04-25T05:55:35;6.60;;;3.80;;
75246;SDS011;63844;50.042;19.224;2023-04-25T05:58:01;6.10;;;3.90;;
75246;SDS011;63844;50.042;19.224;2023-04-25T06:00:28;7.00;;;4.00;;
75246;SDS011;63844;50.042;19.224;2023-04-25T06:05:21;7.20;;;4.00;;
75246;SDS011;63844;50.042;19.224;2023-04-25T06:07:47;7.60;;;3.40;;
75246;SDS011;63844;50.042;19.224;2023-04-25T06:10:14;6.20;;;3.60;;
75246;SDS011;63844;50.042;19.224;2023-04-25T06:12:41;8.30;;;3.60;;
75246;SDS011;63844;50.042;19.224;2023-04-25T06:15:07;5.60;;;3.10;;
75246;SDS011;63844;50.042;19.224;2023-04-25T06:17:34;6.30;;;3.70;;
75246;SDS011;63844;50.042;19.224;2023-04-25T06:20:01;6.30;;;3.80;;
75246;SDS011;63844;50.042;19.224;2023-04-25T06:22:29;5.50;;;2.70;;
75246;SDS011;63844;50.042;19.224;2023-04-25T06:24:55;5.40;;;2.90;;
75246;SDS011;63844;50.042;19.224;2023-04-25T06:27:24;4.60;;;3.20;;
75246;SDS011;63844;50.042;19.224;2023-04-25T06:29:51;5.80;;;2.90;;
75246;SDS011;63844;50.042;19.224;2023-04-25T06:32:17;4.30;;;2.40;;
75246;SDS011;63844;50.042;19.224;2023-04-25T06:34:44;4.70;;;2.70;;
75246;SDS011;63844;50.042;19.224;2023-04-25T06:37:11;7.30;;;3.30;;
75246;SDS011;63844;50.042;19.224;2023-04-25T06:39:38;5.10;;;3.60;;
75246;SDS011;63844;50.042;19.224;2023-04-25T06:42:04;4.70;;;3.30;;
75246;SDS011;63844;50.042;19.224;2023-04-25T06:44:30;2.30;;;1.60;;
75246;SDS011;63844;50.042;19.224;2023-04-25T06:46:57;4.50;;;2.50;;
75246;SDS011;63844;50.042;19.224;2023-04-25T06:49:23;6.50;;;4.30;;
75246;SDS011;63844;50.042;19.224;2023-04-25T06:51:50;6.70;;;4.40;;
75246;SDS011;63844;50.042;19.224;2023-04-25T06:54:16;5.70;;;3.50;;
75246;SDS011;63844;50.042;19.224;2023-04-25T06:56:43;6.20;;;3.20;;
75246;SDS011;63844;50.042;19.224;2023-04-25T06:59:10;5.60;;;3.70;;
75246;SDS011;63844;50.042;19.224;2023-04-25T07:01:36;4.90;;;2.90;;
75246;SDS011;63844;50.042;19.224;2023-04-25T07:04:03;5.80;;;3.70;;
75246;SDS011;63844;50.042;19.224;2023-04-25T07:08:55;5.40;;;3.40;;
75246;SDS011;63844;50.042;19.224;2023-04-25T07:11:22;5.20;;;3.00;;
75246;SDS011;63844;50.042;19.224;2023-04-25T07:13:48;5.00;;;3.10;;
75246;SDS011;63844;50.042;19.224;2023-04-25T07:16:15;5.20;;;2.60;;
75246;SDS011;63844;50.042;19.224;2023-04-25T07:18:42;7.40;;;3.40;;
75246;SDS011;63844;50.042;19.224;2023-04-25T07:21:08;5.00;;;2.90;;
75246;SDS011;63844;50.042;19.224;2023-04-25T07:23:35;7.10;;;2.50;;
75246;SDS011;63844;50.042;19.224;2023-04-25T07:26:01;6.10;;;2.70;;
75246;SDS011;63844;50.042;19.224;2023-04-25T07:28:28;5.80;;;2.80;;
75246;SDS011;63844;50.042;19.224;2023-04-25T07:30:54;5.20;;;2.90;;
75246;SDS011;63844;50.042;19.224;2023-04-25T07:33:20;3.90;;;2.70;;
75246;SDS011;63844;50.042;19.224;2023-04-25T07:35:47;3.90;;;2.50;;
75246;SDS011;63844;50.042;19.224;2023-04-25T07:38:13;7.50;;;2.80;;
75246;SDS011;63844;50.042;19.224;2023-04-25T07:40:40;4.40;;;2.30;;
75246;SDS011;63844;50.042;19.224;2023-04-25T07:43:06;4.60;;;3.20;;
75246;SDS011;63844;50.042;19.224;2023-04-25T07:45:33;3.10;;;2.30;;
75246;SDS011;63844;50.042;19.224;2023-04-25T07:47:59;5.70;;;2.50;;
75246;SDS011;63844;50.042;19.224;2023-04-25T07:50:25;5.30;;;2.60;;
75246;SDS011;63844;50.042;19.224;2023-04-25T07:52:52;5.90;;;3.10;;
75246;SDS011;63844;50.042;19.224;2023-04-25T07:55:18;4.40;;;2.70;;
75246;SDS011;63844;50.042;19.224;2023-04-25T07:57:45;4.10;;;2.60;;
75246;SDS011;63844;50.042;19.224;2023-04-25T08:00:11;4.90;;;2.60;;
75246;SDS011;63844;50.042;19.224;2023-04-25T08:02:38;5.40;;;3.40;;
75246;SDS011;63844;50.042;19.224;2023-04-25T08:05:05;4.90;;;2.60;;
75246;SDS011;63844;50.042;19.224;2023-04-25T08:07:34;4.90;;;3.00;;
75246;SDS011;63844;50.042;19.224;2023-04-25T08:10:01;3.70;;;2.40;;
75246;SDS011;63844;50.042;19.224;2023-04-25T08:12:27;5.00;;;2.90;;
75246;SDS011;63844;50.042;19.224;2023-04-25T08:14:54;5.10;;;3.40;;
75246;SDS011;63844;50.042;19.224;2023-04-25T08:17:20;3.20;;;1.90;;
75246;SDS011;63844;50.042;19.224;2023-04-25T08:19:46;5.70;;;2.90;;
75246;SDS011;63844;50.042;19.224;2023-04-25T08:22:13;4.80;;;2.40;;
75246;SDS011;63844;50.042;19.224;2023-04-25T08:24:41;3.40;;;2.50;;
75246;SDS011;63844;50.042;19.224;2023-04-25T08:27:08;4.50;;;3.00;;
75246;SDS011;63844;50.042;19.224;2023-04-25T08:29:34;3.50;;;2.30;;
75246;SDS011;63844;50.042;19.224;2023-04-25T08:34:27;3.10;;;1.60;;
75246;SDS011;63844;50.042;19.224;2023-04-25T08:36:54;4.90;;;2.60;;
75246;SDS011;63844;50.042;19.224;2023-04-25T08:39:20;4.10;;;2.70;;
75246;SDS011;63844;50.042;19.224;2023-04-25T08:41:47;4.40;;;1.90;;
75246;SDS011;63844;50.042;19.224;2023-04-25T08:44:13;5.50;;;3.20;;
75246;SDS011;63844;50.042;19.224;2023-04-25T08:46:40;4.70;;;3.00;;
75246;SDS011;63844;50.042;19.224;2023-04-25T08:49:07;5.20;;;3.00;;
75246;SDS011;63844;50.042;19.224;2023-04-25T08:51:45;5.00;;;3.10;;
75246;SDS011;63844;50.042;19.224;2023-04-25T08:54:13;4.30;;;3.10;;
75246;SDS011;63844;50.042;19.224;2023-04-25T08:56:41;3.50;;;2.20;;
75246;SDS011;63844;50.042;19.224;2023-04-25T08:59:11;4.40;;;3.60;;
75246;SDS011;63844;50.042;19.224;2023-04-25T09:01:38;4.60;;;3.30;;
75246;SDS011;63844;50.042;19.224;2023-04-25T09:04:05;4.20;;;2.90;;
75246;SDS011;63844;50.042;19.224;2023-04-25T09:06:32;5.20;;;2.70;;
75246;SDS011;63844;50.042;19.224;2023-04-25T09:09:04;5.50;;;2.50;;
75246;SDS011;63844;50.042;19.224;2023-04-25T09:11:32;5.90;;;2.80;;
75246;SDS011;63844;50.042;19.224;2023-04-25T09:14:18;4.10;;;2.50;;
75246;SDS011;63844;50.042;19.224;2023-04-25T09:19:24;4.40;;;2.60;;
75246;SDS011;63844;50.042;19.224;2023-04-25T09:21:54;8.00;;;2.90;;
75246;SDS011;63844;50.042;19.224;2023-04-25T09:24:35;4.20;;;3.10;;
75246;SDS011;63844;50.042;19.224;2023-04-25T09:27:06;3.50;;;2.10;;
75246;SDS011;63844;50.042;19.224;2023-04-25T09:29:35;3.10;;;2.40;;
75246;SDS011;63844;50.042;19.224;2023-04-25T09:32:24;4.20;;;2.70;;
75246;SDS011;63844;50.042;19.224;2023-04-25T09:34:57;4.50;;;2.90;;
75246;SDS011;63844;50.042;19.224;2023-04-25T09:39:55;7.90;;;2.90;;
75246;SDS011;63844;50.042;19.224;2023-04-25T09:42:26;4.70;;;1.70;;
75246;SDS011;63844;50.042;19.224;2023-04-25T09:44:55;4.60;;;2.60;;
75246;SDS011;63844;50.042;19.224;2023-04-25T09:47:23;4.50;;;3.10;;
75246;SDS011;63844;50.042;19.224;2023-04-25T09:49:51;4.20;;;2.50;;
75246;SDS011;63844;50.042;19.224;2023-04-25T09:52:21;5.00;;;3.30;;
75246;SDS011;63844;50.042;19.224;2023-04-25T09:54:49;5.30;;;3.30;;
75246;SDS011;63844;50.042;19.224;2023-04-25T09:57:18;4.40;;;2.50;;
75246;SDS011;63844;50.042;19.224;2023-04-25T09:59:55;3.30;;;2.80;;
75246;SDS011;63844;50.042;19.224;2023-04-25T10:02:25;3.80;;;2.60;;
75246;SDS011;63844;50.042;19.224;2023-04-25T10:04:53;4.20;;;2.90;;
75246;SDS011;63844;50.042;19.224;2023-04-25T10:07:29;3.70;;;2.40;;
75246;SDS011;63844;50.042;19.224;2023-04-25T10:10:00;4.90;;;1.90;;
75246;SDS011;63844;50.042;19.224;2023-04-25T10:12:32;4.20;;;2.90;;
75246;SDS011;63844;50.042;19.224;2023-04-25T10:14:59;5.10;;;2.40;;
75246;SDS011;63844;50.042;19.224;2023-04-25T10:17:27;3.40;;;2.30;;
75246;SDS011;63844;50.042;19.224;2023-04-25T10:19:56;4.80;;;3.10;;
75246;SDS011;63844;50.042;19.224;2023-04-25T10:22:26;3.90;;;2.60;;
75246;SDS011;63844;50.042;19.224;2023-04-25T10:24:57;3.60;;;2.60;;
75246;SDS011;63844;50.042;19.224;2023-04-25T10:27:23;3.20;;;2.40;;
75246;SDS011;63844;50.042;19.224;2023-04-25T10:30:03;6.40;;;3.30;;
75246;SDS011;63844;50.042;19.224;2023-04-25T10:32:32;2.80;;;2.00;;
75246;SDS011;63844;50.042;19.224;2023-04-25T10:35:09;4.00;;;2.50;;
75246;SDS011;63844;50.042;19.224;2023-04-25T10:37:37;4.60;;;2.20;;
75246;SDS011;63844;50.042;19.224;2023-04-25T10:40:10;5.60;;;2.90;;
75246;SDS011;63844;50.042;19.224;2023-04-25T10:42:37;4.00;;;2.40;;
75246;SDS011;63844;50.042;19.224;2023-04-25T10:45:06;3.40;;;2.60;;
75246;SDS011;63844;50.042;19.224;2023-04-25T10:47:36;4.20;;;2.80;;
75246;SDS011;63844;50.042;19.224;2023-04-25T10:50:09;4.60;;;2.30;;
75246;SDS011;63844;50.042;19.224;2023-04-25T10:52:35;3.30;;;2.40;;
75246;SDS011;63844;50.042;19.224;2023-04-25T10:55:05;4.00;;;2.30;;
75246;SDS011;63844;50.042;19.224;2023-04-25T10:57:44;4.10;;;2.60;;
75246;SDS011;63844;50.042;19.224;2023-04-25T11:00:15;5.40;;;2.90;;
75246;SDS011;63844;50.042;19.224;2023-04-25T11:02:44;3.60;;;2.80;;
75246;SDS011;63844;50.042;19.224;2023-04-25T11:05:18;4.30;;;2.90;;
75246;SDS011;63844;50.042;19.224;2023-04-25T11:07:52;4.60;;;2.90;;
75246;SDS011;63844;50.042;19.224;2023-04-25T11:10:27;3.90;;;2.60;;
75246;SDS011;63844;50.042;19.224;2023-04-25T11:12:54;6.40;;;3.60;;
75246;SDS011;63844;50.042;19.224;2023-04-25T11:17:47;5.00;;;3.40;;
75246;SDS011;63844;50.042;19.224;2023-04-25T11:20:14;7.90;;;3.30;;
75246;SDS011;63844;50.042;19.224;2023-04-25T11:22:41;4.30;;;2.70;;
75246;SDS011;63844;50.042;19.224;2023-04-25T11:25:11;4.10;;;2.40;;
75246;SDS011;63844;50.042;19.224;2023-04-25T11:27:58;3.60;;;2.20;;
75246;SDS011;63844;50.042;19.224;2023-04-25T11:30:26;5.80;;;2.50;;
75246;SDS011;63844;50.042;19.224;2023-04-25T11:32:54;5.50;;;3.00;;
75246;SDS011;63844;50.042;19.224;2023-04-25T11:37:49;3.70;;;2.60;;
75246;SDS011;63844;50.042;19.224;2023-04-25T11:40:16;5.90;;;2.80;;
75246;SDS011;63844;50.042;19.224;2023-04-25T11:45:11;4.00;;;2.50;;
75246;SDS011;63844;50.042;19.224;2023-04-25T11:47:38;4.80;;;2.60;;
75246;SDS011;63844;50.042;19.224;2023-04-25T11:50:05;4.40;;;2.10;;
75246;SDS011;63844;50.042;19.224;2023-04-25T11:52:37;2.90;;;1.90;;
75246;SDS011;63844;50.042;19.224;2023-04-25T11:55:08;2.70;;;2.40;;
75246;SDS011;63844;50.042;19.224;2023-04-25T11:57:37;6.80;;;3.20;;
75246;SDS011;63844;50.042;19.224;2023-04-25T12:02:43;5.40;;;3.00;;
75246;SDS011;63844;50.042;19.224;2023-04-25T12:05:10;3.40;;;2.30;;
75246;SDS011;63844;50.042;19.224;2023-04-25T12:07:38;3.90;;;2.40;;
75246;SDS011;63844;50.042;19.224;2023-04-25T12:12:33;3.50;;;2.10;;
75246;SDS011;63844;50.042;19.224;2023-04-25T12:15:14;2.90;;;1.70;;
75246;SDS011;63844;50.042;19.224;2023-04-25T12:17:46;3.50;;;2.20;;
75246;SDS011;63844;50.042;19.224;2023-04-25T12:20:17;6.70;;;3.50;;
75246;SDS011;63844;50.042;19.224;2023-04-25T12:22:47;3.90;;;2.00;;
75246;SDS011;63844;50.042;19.224;2023-04-25T12:25:34;4.70;;;2.50;;
75246;SDS011;63844;50.042;19.224;2023-04-25T12:30:53;6.20;;;2.70;;
75246;SDS011;63844;50.042;19.224;2023-04-25T12:33:27;3.30;;;1.90;;
75246;SDS011;63844;50.042;19.224;2023-04-25T12:35:56;2.40;;;1.50;;
75246;SDS011;63844;50.042;19.224;2023-04-25T12:38:27;3.10;;;2.10;;
75246;SDS011;63844;50.042;19.224;2023-04-25T12:40:56;4.50;;;2.70;;
75246;SDS011;63844;50.042;19.224;2023-04-25T12:43:24;3.80;;;2.40;;
75246;SDS011;63844;50.042;19.224;2023-04-25T12:48:18;4.50;;;2.20;;
75246;SDS011;63844;50.042;19.224;2023-04-25T12:50:45;6.70;;;2.60;;
75246;SDS011;63844;50.042;19.224;2023-04-25T12:53:15;4.80;;;2.70;;
75246;SDS011;63844;50.042;19.224;2023-04-25T12:55:42;9.30;;;2.80;;
75246;SDS011;63844;50.042;19.224;2023-04-25T12:58:09;3.80;;;2.40;;
75246;SDS011;63844;50.042;19.224;2023-04-25T13:00:35;3.80;;;2.30;;
75246;SDS011;63844;50.042;19.224;2023-04-25T13:03:02;3.60;;;2.00;;
75246;SDS011;63844;50.042;19.224;2023-04-25T13:05:29;6.10;;;3.00;;
75246;SDS011;63844;50.042;19.224;2023-04-25T13:07:56;3.70;;;2.60;;
75246;SDS011;63844;50.042;19.224;2023-04-25T13:10:23;4.10;;;2.60;;
75246;SDS011;63844;50.042;19.224;2023-04-25T13:12:49;4.10;;;2.20;;
75246;SDS011;63844;50.042;19.224;2023-04-25T13:15:16;5.70;;;2.60;;
75246;SDS011;63844;50.042;19.224;2023-04-25T13:17:43;3.90;;;2.30;;
75246;SDS011;63844;50.042;19.224;2023-04-25T13:20:10;4.10;;;2.20;;
75246;SDS011;63844;50.042;19.224;2023-04-25T13:22:37;2.60;;;1.90;;
75246;SDS011;63844;50.042;19.224;2023-04-25T13:25:05;2.50;;;1.40;;
75246;SDS011;63844;50.042;19.224;2023-04-25T13:27:33;1.80;;;1.10;;
75246;SDS011;63844;50.042;19.224;2023-04-25T13:30:00;3.20;;;2.10;;
75246;SDS011;63844;50.042;19.224;2023-04-25T13:32:30;3.20;;;2.00;;
75246;SDS011;63844;50.042;19.224;2023-04-25T13:34:57;6.80;;;3.90;;
75246;SDS011;63844;50.042;19.224;2023-04-25T13:37:23;4.80;;;3.40;;
75246;SDS011;63844;50.042;19.224;2023-04-25T13:42:17;3.60;;;2.40;;
75246;SDS011;63844;50.042;19.224;2023-04-25T13:44:43;3.80;;;2.60;;
75246;SDS011;63844;50.042;19.224;2023-04-25T13:47:09;4.10;;;2.70;;
75246;SDS011;63844;50.042;19.224;2023-04-25T13:49:36;5.50;;;2.60;;
75246;SDS011;63844;50.042;19.224;2023-04-25T13:52:02;4.20;;;2.30;;
75246;SDS011;63844;50.042;19.224;2023-04-25T13:54:29;4.80;;;2.70;;
75246;SDS011;63844;50.042;19.224;2023-04-25T13:56:55;6.40;;;2.80;;
75246;SDS011;63844;50.042;19.224;2023-04-25T13:59:24;4.70;;;2.90;;
75246;SDS011;63844;50.042;19.224;2023-04-25T14:01:51;6.80;;;3.20;;
75246;SDS011;63844;50.042;19.224;2023-04-25T14:04:18;4.00;;;2.40;;
75246;SDS011;63844;50.042;19.224;2023-04-25T14:06:44;5.40;;;3.40;;
75246;SDS011;63844;50.042;19.224;2023-04-25T14:09:11;5.30;;;3.30;;
75246;SDS011;63844;50.042;19.224;2023-04-25T14:11:39;9.90;;;6.00;;
75246;SDS011;63844;50.042;19.224;2023-04-25T14:14:05;15.90;;;8.50;;
75246;SDS011;63844;50.042;19.224;2023-04-25T14:16:32;5.50;;;2.90;;
75246;SDS011;63844;50.042;19.224;2023-04-25T14:18:58;5.20;;;4.00;;
75246;SDS011;63844;50.042;19.224;2023-04-25T14:21:25;5.50;;;4.50;;
75246;SDS011;63844;50.042;19.224;2023-04-25T14:23:51;5.70;;;4.20;;
75246;SDS011;63844;50.042;19.224;2023-04-25T14:26:18;5.20;;;2.80;;
75246;SDS011;63844;50.042;19.224;2023-04-25T14:28:44;6.30;;;3.00;;
75246;SDS011;63844;50.042;19.224;2023-04-25T14:31:11;3.90;;;2.20;;
75246;SDS011;63844;50.042;19.224;2023-04-25T14:33:37;6.40;;;3.20;;
75246;SDS011;63844;50.042;19.224;2023-04-25T14:36:07;2.40;;;1.80;;
75246;SDS011;63844;50.042;19.224;2023-04-25T14:41:00;2.80;;;2.50;;
75246;SDS011;63844;50.042;19.224;2023-04-25T14:43:27;3.10;;;2.30;;
75246;SDS011;63844;50.042;19.224;2023-04-25T14:45:53;4.50;;;2.80;;
75246;SDS011;63844;50.042;19.224;2023-04-25T14:48:20;4.00;;;2.40;;
75246;SDS011;63844;50.042;19.224;2023-04-25T14:50:46;4.10;;;2.30;;
75246;SDS011;63844;50.042;19.224;2023-04-25T14:53:13;6.60;;;2.80;;
75246;SDS011;63844;50.042;19.224;2023-04-25T14:55:40;2.70;;;2.20;;
75246;SDS011;63844;50.042;19.224;2023-04-25T14:58:06;4.40;;;2.20;;
75246;SDS011;63844;50.042;19.224;2023-04-25T15:00:33;5.10;;;3.00;;
75246;SDS011;63844;50.042;19.224;2023-04-25T15:02:59;1.80;;;1.50;;
75246;SDS011;63844;50.042;19.224;2023-04-25T15:07:52;4.30;;;2.60;;
75246;SDS011;63844;50.042;19.224;2023-04-25T15:10:18;3.30;;;2.40;;
75246;SDS011;63844;50.042;19.224;2023-04-25T15:12:45;7.80;;;2.60;;
75246;SDS011;63844;50.042;19.224;2023-04-25T15:15:12;2.50;;;1.90;;
75246;SDS011;63844;50.042;19.224;2023-04-25T15:17:40;4.10;;;2.40;;
75246;SDS011;63844;50.042;19.224;2023-04-25T15:20:08;4.90;;;2.20;;
75246;SDS011;63844;50.042;19.224;2023-04-25T15:22:36;4.00;;;2.60;;